Time;durP1;ratioP1;P1;durP2;ratioP2;P2;SDS_P1;SDS_P2;PMS_P1;PMS_P2;Temp;Humidity;BMP_temperature;BMP_pressure;BME280_temperature;BME280_humidity;BME280_pressure;Samples;Min_cycle;Max_cycle;Signal;HPM_P1;HPM_P2
2022/09/02 00:00:44;;;;;;;5.53;1.90;;;;;;;22.48;41.12;101883.91;5075261;28;20409;-80
2022/09/02 00:03:10;;;;;;;4.03;1.92;;;;;;;22.46;41.58;101876.97;5094215;28;20066;-79
2022/09/02 00:05:36;;;;;;;4.10;1.88;;;;;;;22.46;41.12;101874.34;5075463;28;20492;-80
2022/09/02 00:08:02;;;;;;;4.50;1.70;;;;;;;22.46;41.37;101869.94;5077230;28;20146;-79
2022/09/02 00:10:28;;;;;;;4.72;1.92;;;;;;;22.45;41.02;101873.47;5097101;28;20047;-81
2022/09/02 00:12:56;;;;;;;2.30;1.45;;;;;;;22.42;41.16;101876.13;5064420;28;20081;-79
2022/09/02 00:15:22;;;;;;;3.50;1.75;;;;;;;22.42;41.17;101876.13;5095549;28;20067;-80
2022/09/02 00:17:47;;;;;;;3.47;1.50;;;;;;;22.45;41.16;101873.47;5081761;28;20059;-80
2022/09/02 00:20:13;;;;;;;3.08;1.80;;;;;;;22.46;41.16;101872.56;5083012;28;20051;-80
2022/09/02 00:22:38;;;;;;;8.52;2.00;;;;;;;22.43;41.31;101869.09;5078683;28;20054;-80
2022/09/02 00:25:04;;;;;;;4.38;1.85;;;;;;;22.45;41.02;101864.72;5079545;28;20080;-80
2022/09/02 00:27:30;;;;;;;5.22;1.83;;;;;;;22.42;41.19;101859.53;5094559;28;20044;-79
2022/09/02 00:29:55;;;;;;;7.30;1.90;;;;;;;22.45;41.09;101867.34;5080084;28;20040;-80
2022/09/02 00:32:21;;;;;;;4.22;1.70;;;;;;;22.39;41.47;101861.28;5095193;28;20047;-79
2022/09/02 00:34:46;;;;;;;2.78;1.63;;;;;;;22.42;41.17;101863.00;5093694;28;20059;-80
2022/09/02 00:37:12;;;;;;;5.07;1.73;;;;;;;22.43;40.92;101861.25;5078717;28;20056;-79
2022/09/02 00:39:38;;;;;;;5.18;1.70;;;;;;;22.45;41.13;101862.97;5084610;28;20051;-81
2022/09/02 00:42:05;;;;;;;3.40;1.67;;;;;;;22.44;41.16;101861.22;5093467;28;20401;-80
2022/09/02 00:44:32;;;;;;;4.10;1.80;;;;;;;22.45;41.51;101862.09;5091810;28;20040;-80
2022/09/02 00:47:01;;;;;;;5.10;1.70;;;;;;;22.45;41.16;101860.34;5093582;28;20044;-80
2022/09/02 00:49:30;;;;;;;4.18;1.50;;;;;;;22.46;41.33;101848.09;5075628;28;20085;-80
2022/09/02 00:52:16;;;;;;;6.05;1.38;;;;;;;22.40;41.48;101854.28;5093360;28;20135;-80
2022/09/02 00:54:51;;;;;;;4.95;1.85;;;;;;;22.38;41.51;101845.56;5092184;28;20070;-80
2022/09/02 00:57:21;;;;;;;4.93;1.20;;;;;;;22.38;41.27;101845.56;5112670;28;20105;-79
2022/09/02 00:59:58;;;;;;;5.35;2.03;;;;;;;22.39;41.31;101842.94;5109782;28;20757;-79
2022/09/02 01:02:25;;;;;;;4.32;1.80;;;;;;;22.41;41.15;101836.78;5093377;28;20490;-80
2022/09/02 01:04:55;;;;;;;3.35;1.60;;;;;;;22.37;41.32;101838.59;5094258;28;20084;-80
2022/09/02 01:07:21;;;;;;;3.20;1.50;;;;;;;22.39;41.10;101839.44;5078041;28;20043;-80
2022/09/02 01:09:47;;;;;;;3.47;1.80;;;;;;;22.38;41.14;101835.09;5092743;28;20408;-79
2022/09/02 01:12:15;;;;;;;3.05;1.50;;;;;;;22.40;41.08;101835.94;5061329;28;20105;-79
2022/09/02 01:14:40;;;;;;;4.28;1.60;;;;;;;22.39;40.97;101836.84;5075340;28;21439;-79
2022/09/02 01:17:06;;;;;;;4.32;1.90;;;;;;;22.35;41.21;101836.00;5094733;28;20151;-79
2022/09/02 01:19:39;;;;;;;3.28;1.83;;;;;;;22.37;41.00;101839.47;5074971;28;20457;-78
2022/09/02 01:24:46;;;;;;;3.92;1.50;;;;;;;22.38;40.75;101833.34;5100339;28;20166;-80
2022/09/02 01:29:50;;;;;;;3.85;1.60;;;;;;;22.39;41.27;101829.81;5108471;28;20070;-80
2022/09/02 01:32:15;;;;;;;3.97;1.60;;;;;;;22.38;41.20;101828.09;5092320;28;20043;-80
2022/09/02 01:34:41;;;;;;;7.07;2.20;;;;;;;22.39;41.47;101824.56;5073496;28;20062;-80
2022/09/02 01:37:07;;;;;;;3.53;1.73;;;;;;;22.38;41.36;101825.47;5076113;28;20488;-80
2022/09/02 01:39:32;;;;;;;2.92;1.40;;;;;;;22.37;41.51;101818.50;5090171;28;20054;-80
2022/09/02 01:41:59;;;;;;;4.93;1.60;;;;;;;22.39;41.32;101821.97;5075906;28;20381;-80
2022/09/02 01:44:26;;;;;;;5.38;1.80;;;;;;;22.36;41.35;101814.16;5074846;28;20054;-80
2022/09/02 01:46:52;;;;;;;4.95;1.67;;;;;;;22.38;41.26;101816.72;5076059;28;20036;-80
2022/09/02 01:49:17;;;;;;;2.75;1.48;;;;;;;22.38;41.34;101811.47;5075881;28;20055;-80
2022/09/02 01:51:43;;;;;;;3.00;1.70;;;;;;;22.37;41.40;101807.13;5074094;28;20150;-80
2022/09/02 01:54:08;;;;;;;3.70;1.80;;;;;;;22.38;41.32;101812.38;5075916;28;20134;-80
2022/09/02 01:56:33;;;;;;;3.63;1.80;;;;;;;22.37;41.28;101813.25;5073837;28;20052;-81
2022/09/02 01:59:00;;;;;;;3.05;1.67;;;;;;;22.37;41.15;101809.75;5075273;28;20134;-80
2022/09/02 02:01:27;;;;;;;3.60;1.92;;;;;;;22.36;41.32;101811.53;5076694;28;20075;-80
2022/09/02 02:03:52;;;;;;;5.10;1.90;;;;;;;22.36;41.13;101808.91;5082527;28;20045;-80
2022/09/02 02:06:19;;;;;;;3.85;2.03;;;;;;;22.35;41.21;101809.78;5075555;28;20051;-79
2022/09/02 02:08:45;;;;;;;5.07;2.38;;;;;;;22.34;40.86;101808.06;5090638;28;20527;-81
2022/09/02 02:11:11;;;;;;;6.90;2.33;;;;;;;22.35;41.26;101795.81;5092075;28;20070;-80
2022/09/02 02:13:37;;;;;;;3.90;2.08;;;;;;;22.35;41.02;101801.03;5056712;28;20139;-81
2022/09/02 02:16:03;;;;;;;3.95;1.90;;;;;;;22.36;41.15;101801.03;5058610;28;20097;-81
2022/09/02 02:18:28;;;;;;;5.00;2.38;;;;;;;22.39;41.46;101797.50;5107866;28;20051;-81
2022/09/02 02:20:55;;;;;;;4.70;2.00;;;;;;;22.36;41.20;101795.78;5092072;28;20150;-81
2022/09/02 02:25:48;;;;;;;4.53;2.10;;;;;;;22.34;41.10;101796.66;5108531;28;20650;-80
2022/09/02 02:28:13;;;;;;;6.25;2.72;;;;;;;22.34;41.14;101797.56;5092971;28;20047;-80
2022/09/02 02:30:38;;;;;;;7.47;2.95;;;;;;;22.32;41.37;101796.72;5095209;28;20049;-80
2022/09/02 02:33:04;;;;;;;4.88;2.58;;;;;;;22.33;41.28;101792.34;5082115;28;20130;-80
2022/09/02 02:35:29;;;;;;;5.03;2.38;;;;;;;22.33;41.14;101787.94;5079386;28;20031;-80
2022/09/02 02:37:55;;;;;;;4.82;2.33;;;;;;;22.34;41.28;101787.06;5104660;28;20230;-83
2022/09/02 02:40:23;;;;;;;4.28;2.22;;;;;;;22.34;41.42;101787.06;5081815;28;20445;-81
2022/09/02 02:42:52;;;;;;;3.97;2.00;;;;;;;22.33;41.31;101793.19;5084337;28;20901;-81
2022/09/02 02:45:17;;;;;;;4.38;1.90;;;;;;;22.33;41.30;101787.94;5108381;28;20398;-81
2022/09/02 02:47:45;;;;;;;4.78;1.90;;;;;;;22.30;41.22;101788.00;5082010;28;20072;-82
2022/09/02 02:50:12;;;;;;;3.47;1.70;;;;;;;22.27;41.48;101782.78;5099992;28;20046;-81
2022/09/02 02:52:39;;;;;;;3.65;1.77;;;;;;;22.28;41.34;101783.69;5079392;28;20073;-81
2022/09/02 02:55:05;;;;;;;3.38;1.75;;;;;;;22.29;41.33;101777.53;5117870;28;20420;-80
2022/09/02 02:57:31;;;;;;;3.58;1.83;;;;;;;22.28;41.47;101787.16;5080317;28;20071;-80
2022/09/02 02:59:57;;;;;;;2.70;1.50;;;;;;;22.27;41.38;101784.53;5082516;28;20039;-80
2022/09/02 03:02:23;;;;;;;3.33;1.60;;;;;;;22.27;41.20;101784.53;5080707;28;20043;-80
2022/09/02 03:04:49;;;;;;;3.60;1.70;;;;;;;22.28;41.52;101774.03;5097302;28;20040;-80
2022/09/02 03:07:15;;;;;;;4.18;1.88;;;;;;;22.24;41.32;101774.97;5065312;28;20047;-80
2022/09/02 03:09:41;;;;;;;5.40;1.70;;;;;;;22.23;41.34;101773.22;5095732;28;20739;-80
2022/09/02 03:12:07;;;;;;;3.65;1.83;;;;;;;22.25;41.38;101774.06;5073836;28;20052;-80
2022/09/02 03:14:32;;;;;;;5.18;1.85;;;;;;;22.25;41.38;101770.59;5093368;27;20446;-79
2022/09/02 03:16:58;;;;;;;4.53;1.98;;;;;;;22.25;41.58;101771.44;5100950;27;20039;-80
2022/09/02 03:19:24;;;;;;;3.85;1.92;;;;;;;22.25;41.35;101776.69;5099981;27;20051;-79
2022/09/02 03:21:49;;;;;;;3.42;1.75;;;;;;;22.27;41.47;101771.44;5100532;27;20054;-80
2022/09/02 03:24:15;;;;;;;4.00;1.80;;;;;;;22.27;41.53;101769.66;5084543;27;20442;-80
2022/09/02 03:26:41;;;;;;;2.92;1.60;;;;;;;22.29;41.46;101769.66;5107170;27;20051;-80
2022/09/02 03:29:10;;;;;;;4.45;1.83;;;;;;;22.27;41.68;101766.19;5133866;27;20051;-80
2022/09/02 03:31:36;;;;;;;5.30;1.90;;;;;;;22.27;41.68;101766.19;5112668;27;20058;-80
2022/09/02 03:34:03;;;;;;;4.93;1.85;;;;;;;22.28;41.48;101763.56;5114992;28;20049;-80
2022/09/02 03:36:32;;;;;;;3.33;1.98;;;;;;;22.28;41.74;101758.31;5052156;28;1254140;-80
2022/09/02 03:38:58;;;;;;;2.67;1.70;;;;;;;22.26;41.53;101760.09;5112657;28;20101;-80
2022/09/02 03:41:24;;;;;;;2.80;1.73;;;;;;;22.26;41.57;101767.97;5110934;28;20147;-80
2022/09/02 03:43:50;;;;;;;5.93;2.20;;;;;;;22.25;41.60;101758.34;5098729;27;20532;-80
2022/09/02 03:46:17;;;;;;;3.90;1.67;;;;;;;22.26;41.63;101757.47;5099789;27;20057;-80
2022/09/02 03:48:43;;;;;;;2.80;1.58;;;;;;;22.27;41.90;101756.56;5133022;27;20504;-80
2022/09/02 03:51:08;;;;;;;4.18;1.63;;;;;;;22.24;41.73;101758.38;5099618;27;20444;-80
2022/09/02 03:53:34;;;;;;;3.10;1.65;;;;;;;22.26;41.82;101754.00;5096094;27;20078;-80
2022/09/02 03:56:05;;;;;;;4.35;1.50;;;;;;;22.25;41.62;101752.25;5099039;27;20392;-80
2022/09/02 03:58:31;;;;;;;2.50;1.55;;;;;;;22.25;41.82;101747.84;5114328;27;20027;-80
2022/09/02 04:00:57;;;;;;;3.20;1.60;;;;;;;22.23;41.74;101741.75;5102508;27;20051;-82
2022/09/02 04:03:22;;;;;;;3.00;1.55;;;;;;;22.23;41.72;101746.16;5101890;27;20037;-81
2022/09/02 04:05:49;;;;;;;4.15;1.83;;;;;;;22.22;41.64;101745.28;5115045;28;20051;-82
2022/09/02 04:08:16;;;;;;;3.83;1.77;;;;;;;22.23;41.79;101736.53;5124686;28;20055;-82
2022/09/02 04:10:41;;;;;;;4.05;1.83;;;;;;;22.22;41.63;101733.91;5112660;27;20055;-82
2022/09/02 04:13:07;;;;;;;3.05;1.70;;;;;;;22.22;41.84;101734.81;5111704;28;20405;-81
2022/09/02 04:15:32;;;;;;;2.58;1.40;;;;;;;22.23;41.73;101730.41;5112379;27;20044;-82
2022/09/02 04:17:58;;;;;;;2.90;1.50;;;;;;;22.23;41.94;101736.53;5100933;27;20138;-83
2022/09/02 04:20:24;;;;;;;2.55;1.52;;;;;;;22.21;41.61;101737.41;5100320;27;20051;-82
2022/09/02 04:22:50;;;;;;;3.05;1.80;;;;;;;22.18;41.68;101740.94;5093982;28;20138;-80
2022/09/02 04:25:16;;;;;;;3.78;1.67;;;;;;;22.19;41.72;101726.97;5111662;28;20177;-80
2022/09/02 04:27:41;;;;;;;2.72;1.50;;;;;;;22.19;41.75;101721.72;5112300;27;20065;-81
2022/09/02 04:30:08;;;;;;;2.17;1.30;;;;;;;22.19;41.63;101724.34;5133941;27;20058;-81
2022/09/02 04:32:35;;;;;;;2.90;1.70;;;;;;;22.20;41.68;101723.44;5112664;27;20134;-80
2022/09/02 04:35:00;;;;;;;2.88;1.63;;;;;;;22.19;41.72;101724.34;5109908;27;20042;-80
2022/09/02 04:37:26;;;;;;;4.57;1.30;;;;;;;22.19;41.64;101724.34;5112591;27;20571;-80
2022/09/02 04:39:52;;;;;;;4.57;1.50;;;;;;;22.20;41.59;101720.81;5096664;27;20401;-80
2022/09/02 04:42:17;;;;;;;2.75;1.55;;;;;;;22.19;41.74;101714.72;5097616;27;20045;-80
2022/09/02 04:44:45;;;;;;;2.30;1.40;;;;;;;22.19;41.65;101717.34;5112053;27;20047;-80
2022/09/02 04:47:11;;;;;;;2.92;1.25;;;;;;;22.20;41.88;101720.81;5098032;27;20047;-80
2022/09/02 04:49:36;;;;;;;2.80;1.63;;;;;;;22.20;41.96;101720.81;5120362;27;20466;-80
2022/09/02 04:52:02;;;;;;;3.15;1.85;;;;;;;22.18;41.76;101720.81;5097865;27;20446;-83
2022/09/02 04:54:27;;;;;;;3.88;1.88;;;;;;;22.19;41.95;101721.72;5094727;27;20035;-82
2022/09/02 04:56:56;;;;;;;2.83;1.77;;;;;;;22.21;41.74;101719.06;5088959;28;20506;-80
2022/09/02 04:59:22;;;;;;;3.80;1.90;;;;;;;22.19;42.05;101713.84;5064247;28;20048;-83
2022/09/02 05:01:48;;;;;;;3.08;1.60;;;;;;;22.20;41.80;101720.81;5098956;28;20058;-82
2022/09/02 05:04:17;;;;;;;3.33;1.60;;;;;;;22.18;41.94;101709.47;5086726;28;20050;-85
2022/09/02 05:09:45;;;;;;;3.92;1.60;;;;;;;22.18;41.69;101714.72;5111350;28;20075;-83
2022/09/02 05:12:11;;;;;;;3.17;1.65;;;;;;;22.21;41.94;101719.06;5068333;28;20044;-80
2022/09/02 05:14:36;;;;;;;8.05;1.70;;;;;;;22.21;41.93;101713.81;5124973;28;20091;-84
2022/09/02 05:19:45;;;;;;;3.38;1.90;;;;;;;22.21;41.82;101719.94;5126225;27;20047;-80
2022/09/02 05:22:11;;;;;;;6.18;2.08;;;;;;;22.22;41.66;101718.19;5125390;27;20499;-81
2022/09/02 05:24:36;;;;;;;4.38;1.98;;;;;;;22.22;41.91;101713.81;5096777;27;20038;-80
2022/09/02 05:27:02;;;;;;;3.45;1.85;;;;;;;22.21;41.71;101711.19;5099478;28;20043;-83
2022/09/02 05:29:27;;;;;;;3.95;1.95;;;;;;;22.22;41.81;101712.94;5113174;28;20055;-82
2022/09/02 05:31:52;;;;;;;4.55;2.35;;;;;;;22.23;41.64;101712.06;5110837;28;20032;-83
2022/09/02 05:34:18;;;;;;;5.05;2.10;;;;;;;22.23;41.63;101712.91;5092162;28;20044;-84
2022/09/02 05:36:44;;;;;;;5.97;2.40;;;;;;;22.25;41.68;101716.38;5108845;28;20075;-85
2022/09/02 05:42:19;;;;;;;5.35;2.20;;;;;;;22.25;41.56;101715.53;5117256;28;20074;-84
2022/09/02 05:44:45;;;;;;;4.63;2.08;;;;;;;22.24;41.47;101713.81;5115967;28;20107;-84
2022/09/02 05:47:11;;;;;;;4.10;1.80;;;;;;;22.25;41.57;101718.16;5092695;28;20043;-85
2022/09/02 05:52:37;;;;;;;4.07;2.05;;;;;;;22.28;41.95;101712.88;5119586;27;20046;-85
2022/09/02 05:55:03;;;;;;;5.82;1.95;;;;;;;22.31;41.50;101718.94;5091302;28;20044;-80
2022/09/02 05:57:28;;;;;;;4.60;1.95;;;;;;;22.22;41.55;101711.19;5105094;28;20057;-82
2022/09/02 05:59:55;;;;;;;3.45;1.60;;;;;;;22.17;41.43;101711.25;5114843;27;20384;-82
2022/09/02 06:02:22;;;;;;;4.28;1.90;;;;;;;22.11;41.13;101713.09;5098095;28;20067;-81
2022/09/02 06:04:50;;;;;;;5.18;1.98;;;;;;;22.07;41.20;101716.66;5098339;28;20059;-82
2022/09/02 06:07:17;;;;;;;5.93;2.05;;;;;;;22.09;41.17;101712.25;5119300;27;20043;-84
2022/09/02 06:09:43;;;;;;;7.82;2.20;;;;;;;22.24;41.80;101705.94;5102557;27;20350;-82
2022/09/02 06:12:10;;;;;;;7.65;2.22;;;;;;;22.15;41.56;101705.16;5111928;28;20054;-80
2022/09/02 06:14:41;;;;;;;12.02;2.58;;;;;;;22.01;40.70;101707.09;5139316;27;20039;-82
2022/09/02 06:17:13;;;;;;;7.88;2.60;;;;;;;21.81;40.35;101704.75;5124456;27;20049;-82
2022/09/02 06:19:40;;;;;;;12.95;3.15;;;;;;;21.72;40.01;101704.91;5107298;28;20063;-83
2022/09/02 06:24:59;;;;;;;10.98;2.40;;;;;;;21.81;39.57;101707.38;5140054;28;20515;-83
2022/09/02 06:27:25;;;;;;;12.57;2.30;;;;;;;21.97;39.90;101700.16;5114729;28;20077;-82
2022/09/02 06:29:50;;;;;;;6.03;2.25;;;;;;;22.10;39.54;101695.63;5114769;28;20557;-82
2022/09/02 06:32:16;;;;;;;7.40;1.92;;;;;;;22.18;39.35;101702.47;5104586;28;20056;-82
2022/09/02 06:34:42;;;;;;;6.13;2.47;;;;;;;22.25;39.33;101699.81;5098465;28;20512;-82
2022/09/02 06:37:07;;;;;;;8.50;2.15;;;;;;;22.27;39.71;101693.63;5072720;28;20044;-83
2022/09/02 06:39:32;;;;;;;5.63;2.20;;;;;;;22.31;39.73;101691.84;5073858;28;20036;-82
2022/09/02 06:41:58;;;;;;;4.28;2.00;;;;;;;22.37;39.76;101691.75;5096057;28;20484;-83
2022/09/02 06:44:23;;;;;;;7.40;2.00;;;;;;;22.43;39.48;101693.38;5094288;28;20035;-81
2022/09/02 06:46:57;;;;;;;4.63;2.00;;;;;;;22.47;40.22;101697.69;5129629;28;21095;-81
2022/09/02 06:49:25;;;;;;;9.00;2.15;;;;;;;22.56;39.47;101689.69;5129802;28;20048;-81
2022/09/02 06:51:52;;;;;;;8.10;2.38;;;;;;;22.62;39.08;101689.56;5112564;28;20035;-81
2022/09/02 06:54:19;;;;;;;5.88;2.15;;;;;;;22.67;39.09;101690.38;5120477;28;20141;-79
2022/09/02 06:56:46;;;;;;;5.93;2.25;;;;;;;22.66;39.37;101690.41;5094160;28;20043;-82
2022/09/02 06:59:12;;;;;;;5.85;2.15;;;;;;;22.68;39.41;101696.47;5112687;28;20043;-83
2022/09/02 07:01:37;;;;;;;10.05;2.10;;;;;;;22.70;39.37;101694.69;5084013;28;20113;-82
2022/09/02 07:06:48;;;;;;;4.57;2.03;;;;;;;22.75;39.71;101691.09;5120689;28;21202;-82
2022/09/02 07:09:18;;;;;;;4.07;2.00;;;;;;;22.77;39.39;101691.06;5132031;28;20054;-83
2022/09/02 07:11:47;;;;;;;7.38;2.00;;;;;;;22.80;39.61;101694.50;5110035;28;20051;-82
2022/09/02 07:14:18;;;;;;;4.10;1.83;;;;;;;22.85;39.58;101688.31;5112795;28;20039;-83
2022/09/02 07:16:50;;;;;;;6.22;2.30;;;;;;;22.88;39.22;101689.09;5109812;27;20086;-82
2022/09/02 07:19:17;;;;;;;4.07;1.70;;;;;;;22.90;39.11;101684.69;5115958;27;20545;-83
2022/09/02 07:21:42;;;;;;;5.78;1.92;;;;;;;22.92;39.54;101682.91;5113926;27;20055;-83
2022/09/02 07:24:10;;;;;;;4.53;1.85;;;;;;;22.94;39.52;101682.88;5099435;27;20176;-81
2022/09/02 07:26:37;;;;;;;3.83;1.80;;;;;;;22.90;39.68;101691.72;5114105;27;20047;-81
2022/09/02 07:29:03;;;;;;;7.78;2.00;;;;;;;22.67;38.58;101682.50;5134662;27;20052;-80
2022/09/02 07:31:29;;;;;;;5.40;1.77;;;;;;;22.47;38.23;101681.97;5113074;27;20039;-80
2022/09/02 07:33:57;;;;;;;5.75;1.90;;;;;;;22.35;38.21;101675.19;5116553;27;20070;-79
2022/09/02 07:38:58;;;;;;;9.25;1.60;;;;;;;22.31;37.75;101679.59;5120288;28;21138;-87
2022/09/02 07:41:24;;;;;;;4.78;1.65;;;;;;;22.33;37.42;101680.44;5099830;28;20128;-82
2022/09/02 07:43:50;;;;;;;7.70;1.50;;;;;;;22.28;37.41;101671.78;5100147;28;20072;-81
2022/09/02 07:46:16;;;;;;;7.20;1.88;;;;;;;22.32;37.11;101669.97;5116150;28;20051;-86
2022/09/02 07:48:42;;;;;;;6.95;1.52;;;;;;;22.26;37.00;101670.94;5022330;28;1118011;-80
2022/09/02 07:51:11;;;;;;;5.55;1.55;;;;;;;22.28;36.75;101670.94;5097880;28;20052;-82
2022/09/02 07:53:37;;;;;;;7.60;1.67;;;;;;;22.26;36.88;101668.31;5095762;28;20052;-82
2022/09/02 07:56:03;;;;;;;7.93;1.33;;;;;;;22.28;36.86;101666.53;5117184;28;20051;-82
2022/09/02 07:58:29;;;;;;;4.97;1.60;;;;;;;22.29;37.22;101667.41;5094532;28;20086;-81
2022/09/02 08:00:55;;;;;;;7.93;1.60;;;;;;;22.37;37.14;101662.91;5082920;28;20115;-82
2022/09/02 08:03:23;;;;;;;4.95;1.55;;;;;;;22.32;36.66;101652.50;5091397;28;20458;-83
2022/09/02 08:05:48;;;;;;;7.70;1.70;;;;;;;22.34;36.73;101658.59;5092263;28;20158;-82
2022/09/02 08:10:53;;;;;;;4.05;1.13;;;;;;;22.24;36.62;101662.22;5138843;27;20047;-82
2022/09/02 08:13:19;;;;;;;3.67;1.15;;;;;;;22.23;36.91;101660.50;5127092;27;20046;-83
2022/09/02 08:15:45;;;;;;;7.88;1.48;;;;;;;22.24;36.90;101659.63;5124687;27;20741;-83
2022/09/02 08:18:11;;;;;;;5.53;1.70;;;;;;;22.25;36.97;101661.34;5153579;27;20031;-83
2022/09/02 08:20:37;;;;;;;8.48;1.80;;;;;;;22.23;37.01;101659.63;5123997;27;20043;-83
2022/09/02 08:23:07;;;;;;;4.47;1.52;;;;;;;22.21;37.13;101658.75;5127103;27;20508;-83
2022/09/02 08:25:34;;;;;;;10.48;1.52;;;;;;;22.14;36.84;101656.22;5117607;27;20489;-79
2022/09/02 08:28:00;;;;;;;4.82;1.70;;;;;;;22.09;37.03;101659.81;5133431;27;20054;-80
2022/09/02 08:30:26;;;;;;;5.40;1.38;;;;;;;22.08;36.87;101651.09;5114450;27;20054;-80
2022/09/02 08:32:52;;;;;;;6.30;1.77;;;;;;;22.10;36.91;101651.94;5113192;28;20048;-80
2022/09/02 08:35:17;;;;;;;7.45;1.30;;;;;;;22.12;36.91;101651.91;5080478;28;20047;-80
2022/09/02 08:37:43;;;;;;;7.63;1.67;;;;;;;22.11;36.78;101658.91;5113558;27;20055;-80
2022/09/02 08:40:15;;;;;;;4.93;1.65;;;;;;;22.12;36.97;101652.78;5099126;27;20137;-80
2022/09/02 08:42:55;;;;;;;5.97;1.60;;;;;;;22.12;36.97;101644.94;5114672;27;20047;-81
2022/09/02 08:47:51;;;;;;;7.05;1.60;;;;;;;22.19;39.21;101645.69;5133511;27;20059;-81
2022/09/02 08:50:18;;;;;;;11.23;1.35;;;;;;;22.10;39.40;101645.81;5116871;27;20050;-80
2022/09/02 08:53:15;;;;;;;7.70;1.70;;;;;;;22.06;39.50;101647.63;5113590;27;20047;-81
2022/09/02 08:55:49;;;;;;;4.65;1.50;;;;;;;21.96;38.84;101643.41;5132601;27;20497;-81
2022/09/02 08:58:18;;;;;;;9.68;1.45;;;;;;;21.95;39.30;101639.94;5117540;27;20039;-81
2022/09/02 09:00:49;;;;;;;4.85;1.55;;;;;;;21.96;39.78;101641.66;5108074;27;20043;-81
2022/09/02 09:05:48;;;;;;;8.52;1.60;;;;;;;21.87;39.45;101631.31;5130746;27;20086;-81
2022/09/02 09:11:01;;;;;;;8.30;1.52;;;;;;;21.95;39.74;101644.31;5102278;28;20040;-81
2022/09/02 09:14:04;;;;;;;3.97;1.48;;;;;;;21.94;40.15;101642.56;5092632;28;20388;-80
2022/09/02 09:16:38;;;;;;;9.57;1.65;;;;;;;21.87;39.95;101644.41;5091522;28;20058;-80
2022/09/02 09:19:21;;;;;;;4.05;1.75;;;;;;;21.90;40.05;101641.75;5093966;28;20081;-80
2022/09/02 09:21:46;;;;;;;8.00;1.53;;;;;;;21.88;39.65;101637.41;5080785;28;20781;-80
2022/09/02 09:26:46;;;;;;;6.25;1.25;;;;;;;21.86;39.20;101626.97;5109784;28;20043;-80
2022/09/02 09:29:11;;;;;;;8.15;1.80;;;;;;;21.90;40.60;101631.25;5076881;28;20050;-80
2022/09/02 09:31:39;;;;;;;9.65;1.73;;;;;;;21.88;40.75;101632.19;5074757;28;20071;-80
2022/09/02 09:34:13;;;;;;;7.47;1.67;;;;;;;21.90;40.31;101633.88;5077012;28;20047;-80
2022/09/02 09:36:38;;;;;;;5.35;1.60;;;;;;;21.92;40.42;101629.47;5058393;28;20048;-80
2022/09/02 09:39:19;;;;;;;5.35;1.55;;;;;;;21.92;41.00;101618.13;5093081;28;20538;-80
2022/09/02 09:41:46;;;;;;;7.95;1.50;;;;;;;21.89;40.58;101624.31;5101916;28;20085;-80
2022/09/02 09:46:47;;;;;;;11.50;1.60;;;;;;;21.93;40.52;101623.38;5109241;28;20051;-80
2022/09/02 09:51:54;;;;;;;3.63;1.50;;;;;;;21.89;40.81;101624.31;5108998;28;20638;-80
2022/09/02 09:54:19;;;;;;;5.40;1.70;;;;;;;21.94;40.44;101611.13;5089363;28;20048;-80
2022/09/02 09:56:45;;;;;;;7.10;1.55;;;;;;;21.91;40.52;101622.53;5057151;28;21247;-79
2022/09/02 10:01:50;;;;;;;7.32;1.60;;;;;;;21.93;41.55;101619.88;5108667;28;20048;-80
2022/09/02 10:06:47;;;;;;;10.50;1.70;;;;;;;21.93;41.51;101620.75;5109212;28;20917;-80
2022/09/02 10:11:56;;;;;;;7.68;1.38;;;;;;;21.96;41.05;101612.81;5109729;28;20871;-80
2022/09/02 10:14:22;;;;;;;6.32;1.70;;;;;;;21.94;41.86;101611.97;5092124;28;20512;-79
2022/09/02 10:17:00;;;;;;;4.60;1.50;;;;;;;21.95;41.38;101612.88;5078225;28;20063;-81
2022/09/02 10:19:54;;;;;;;6.53;1.73;;;;;;;21.93;41.55;101620.75;5096383;28;20063;-81
2022/09/02 10:24:54;;;;;;;5.28;1.83;;;;;;;21.91;40.94;101609.41;5109906;28;19924;-80
2022/09/02 10:29:58;;;;;;;5.88;1.70;;;;;;;22.00;41.05;101599.69;5108663;28;21205;-79
2022/09/02 10:32:47;;;;;;;6.38;1.83;;;;;;;22.03;40.98;101599.63;5091410;28;20142;-80
2022/09/02 10:37:48;;;;;;;7.20;1.90;;;;;;;21.97;41.63;101593.59;5108364;28;20773;-80
2022/09/02 10:40:18;;;;;;;4.93;1.42;;;;;;;21.98;40.84;101587.47;5092726;28;20052;-80
2022/09/02 10:42:59;;;;;;;5.63;1.70;;;;;;;22.02;41.41;101593.53;5073614;28;20055;-80
2022/09/02 10:45:49;;;;;;;4.70;1.60;;;;;;;22.04;41.19;101594.38;5091071;28;20055;-80
2022/09/02 10:51:03;;;;;;;6.05;1.70;;;;;;;22.02;40.91;101587.44;5109690;28;20048;-80
2022/09/02 10:53:47;;;;;;;6.35;1.83;;;;;;;22.02;40.60;101588.28;5094734;28;20051;-79
2022/09/02 10:58:54;;;;;;;2.65;1.42;;;;;;;22.09;40.86;101581.19;5112647;28;20545;-80
2022/09/02 11:04:10;;;;;;;6.07;1.55;;;;;;;22.10;42.14;101578.56;5114145;28;20396;-79
2022/09/02 11:06:39;;;;;;;5.70;1.60;;;;;;;22.09;41.36;101576.81;5100098;28;20044;-81
2022/09/02 11:11:56;;;;;;;9.02;1.88;;;;;;;22.14;41.62;101582.81;5103191;28;20047;-81
2022/09/02 11:16:57;;;;;;;4.85;1.65;;;;;;;22.18;40.86;101573.16;5112276;28;20032;-79
2022/09/02 11:19:38;;;;;;;3.42;1.70;;;;;;;22.21;42.30;101578.38;5092032;28;20105;-80
2022/09/02 11:22:21;;;;;;;4.93;1.70;;;;;;;22.21;42.82;101560.03;5093962;28;20051;-80
2022/09/02 11:24:59;;;;;;;4.55;1.67;;;;;;;22.26;42.37;101565.22;5093280;28;20093;-80
2022/09/02 11:28:04;;;;;;;3.25;1.73;;;;;;;22.28;41.83;101558.19;5094487;28;20447;-80
2022/09/02 11:30:50;;;;;;;4.45;1.60;;;;;;;22.30;41.71;101559.88;5093102;28;20044;-81
2022/09/02 11:35:52;;;;;;;4.13;1.40;;;;;;;22.32;42.03;101554.59;5112978;28;20044;-82
2022/09/02 11:41:17;;;;;;;5.70;1.92;;;;;;;22.29;41.18;101550.28;5111320;28;21241;-78
2022/09/02 11:43:57;;;;;;;5.57;1.50;;;;;;;22.27;41.05;101544.19;5093045;28;20577;-79
2022/09/02 11:46:35;;;;;;;6.97;1.92;;;;;;;22.28;40.12;101537.22;5100048;28;20035;-80
2022/09/02 11:51:59;;;;;;;9.55;2.78;;;;;;;22.30;41.16;101535.44;5102048;28;20101;-79
2022/09/02 11:54:30;;;;;;;11.02;3.25;;;;;;;22.29;41.01;101529.28;5093500;28;20143;-80
2022/09/02 11:57:00;;;;;;;7.88;2.92;;;;;;;22.31;41.05;101529.28;5094382;28;20092;-81
2022/09/02 11:59:51;;;;;;;6.97;2.80;;;;;;;22.32;41.02;101528.38;5093729;28;20058;-81
2022/09/02 12:04:46;;;;;;;3.53;2.15;;;;;;;22.33;40.80;101524.88;5063958;28;1251176;-80
2022/09/02 12:07:11;;;;;;;4.63;2.50;;;;;;;22.36;40.63;101525.69;5082194;28;20075;-81
2022/09/02 12:09:45;;;;;;;9.18;2.28;;;;;;;22.35;40.73;101523.94;5092927;28;20044;-81
2022/09/02 12:12:21;;;;;;;7.93;2.30;;;;;;;22.37;40.67;101516.91;5113706;28;20047;-81
2022/09/02 12:14:47;;;;;;;6.35;2.10;;;;;;;22.37;40.41;101518.69;5111362;28;20486;-81
2022/09/02 12:19:49;;;;;;;4.90;2.10;;;;;;;22.41;40.10;101506.34;5110451;28;20765;-81
2022/09/02 12:22:14;;;;;;;5.18;2.10;;;;;;;22.44;40.30;101503.69;5094302;28;20058;-81
2022/09/02 12:24:57;;;;;;;5.68;2.20;;;;;;;22.42;40.62;101495.84;5092207;28;20489;-80
2022/09/02 12:27:31;;;;;;;4.35;2.45;;;;;;;22.42;40.37;101497.59;5077385;28;20455;-80
2022/09/02 12:29:58;;;;;;;3.30;1.75;;;;;;;22.40;40.81;101500.25;5103450;28;20039;-81
2022/09/02 12:33:11;;;;;;;5.22;1.88;;;;;;;22.45;40.20;101492.28;5093467;28;20502;-80
2022/09/02 12:35:58;;;;;;;4.93;2.20;;;;;;;22.44;40.24;101495.81;5109252;28;20139;-81
2022/09/02 12:38:41;;;;;;;5.65;2.10;;;;;;;22.47;40.09;101494.00;5076462;28;20071;-81
2022/09/02 12:41:19;;;;;;;2.53;1.83;;;;;;;22.48;39.76;101485.25;5093360;28;20562;-80
2022/09/02 12:43:56;;;;;;;5.95;1.88;;;;;;;22.52;39.75;101492.16;5091885;28;20078;-81
2022/09/02 12:46:41;;;;;;;5.10;1.75;;;;;;;22.50;39.57;101486.06;5093395;28;20058;-81
2022/09/02 12:52:01;;;;;;;5.85;2.10;;;;;;;22.55;39.32;101491.22;5101596;28;20844;-81
2022/09/02 12:54:47;;;;;;;4.30;2.10;;;;;;;22.55;39.48;101496.47;5092013;28;20056;-81
2022/09/02 12:57:15;;;;;;;3.45;1.67;;;;;;;22.57;39.53;101473.69;5093433;28;20048;-82
2022/09/02 12:59:42;;;;;;;7.03;1.90;;;;;;;22.61;38.92;101478.00;5110498;28;20079;-82
2022/09/02 13:04:54;;;;;;;5.25;1.58;;;;;;;22.61;38.69;101480.59;5109902;28;20303;-82